Latest Weather Observations for Essendon Airport

IDV60801

Issued at 7:35 pm EST Wednesday 17 September 2014 (issued every 30 minutes, with the page automatically refreshed every 10 minutes)

About weather observations | Map of weather stations | Latest weather observations for VIC | Other Formats
Station Details ID: 086038 Name: ESSENDON AIRPORT Lat: -37.73 Lon: 144.91 Height: 78.4 m
Data from the previous 72 hours. | See also: Recent months at Essendon Airport
Date/Time
EST
Temp
°C
App
Temp
°C
Dew
Point
Rel
Hum
%
Delta-T
°C
Wind Press
QNH
hPa
Press
MSL
hPa
Rain
since 9 am
mm
Dir
 
Spd
km/h
Gust
km/h
Spd
kts
Gust
kts
17/07:30pm 8.4 3.3 4.0 74 1.9 WSW 20 28 11 15 1018.5 1018.5 1.4
17/07:00pm 9.0 1.7 4.6 74 2.0 WSW 32 50 17 27 1018.2 1018.2 1.4
17/06:53pm 9.2 2.2 4.2 71 2.2 WSW 30 50 16 27 1018.2 1018.2 1.4
17/06:30pm 9.4 3.5 4.0 69 2.4 WSW 24 30 13 16 1017.8 1017.8 1.4
17/06:21pm 9.4 2.5 4.8 73 2.1 WSW 30 48 16 26 1017.8 1017.8 1.4
17/06:00pm 10.3 2.2 3.3 62 3.1 WSW 35 46 19 25 1017.4 1017.4 1.4
17/05:30pm 10.7 2.6 3.3 60 3.2 WSW 35 44 19 24 1017.0 1017.0 1.4
17/05:00pm 12.0 5.6 5.2 63 3.1 WSW 28 43 15 23 1016.3 1016.3 1.4
17/04:30pm 10.6 3.5 6.6 76 1.9 WSW 33 44 18 24 1016.1 1016.1 1.4
17/04:20pm 10.7 4.0 5.7 71 2.3 WSW 30 48 16 26 1016.1 1016.1 1.4
17/04:00pm 10.8 5.3 7.7 81 1.5 WSW 26 37 14 20 1015.9 1015.9 1.4
17/03:30pm 10.0 2.4 7.6 85 1.2 W 37 48 20 26 1015.5 1015.5 1.4
17/03:00pm 11.5 2.5 6.2 70 2.5 WSW 43 56 23 30 1015.3 1015.3 1.2
17/02:30pm 12.3 2.4 4.8 60 3.4 WSW 46 65 25 35 1014.9 1015.0 1.2
17/02:16pm 13.3 3.8 3.9 53 4.3 WSW 43 63 23 34 1014.5 1014.6 1.2
17/02:00pm 14.3 5.5 3.5 48 4.9 WSW 39 50 21 27 1014.2 1014.3 1.2
17/01:30pm 14.7 4.8 2.6 44 5.4 WSW 44 57 24 31 1014.1 1014.2 1.2
17/01:16pm 15.1 6.5 4.5 49 5.0 WSW 39 63 21 34 1013.9 1014.0 1.2
17/01:00pm 13.9 5.8 5.3 56 4.0 W 37 48 20 26 1014.1 1014.2 1.2
17/12:30pm 13.2 4.9 6.1 62 3.4 W 39 57 21 31 1013.9 1014.0 1.2
17/12:00pm 12.7 5.2 8.0 73 2.3 W 37 46 20 25 1014.0 1014.1 1.2
17/11:52am 12.5 6.3 9.5 82 1.5 W 32 46 17 25 1014.2 1014.3 1.2
17/11:36am 10.4 2.8 7.6 83 1.3 W 37 57 20 31 1014.4 1014.5 1.2
17/11:32am 11.4 4.6 6.9 74 2.2 W 32 57 17 31 1014.2 1014.3 1.0
17/11:30am 13.1 6.7 8.6 74 2.3 W 32 41 17 22 1014.1 1014.2 1.0
17/11:00am 12.0 5.6 6.9 71 2.4 WSW 30 56 16 30 1014.1 1014.2 0.8
17/10:42am 10.7 3.9 7.8 82 1.4 WSW 33 52 18 28 1014.1 1014.2 0.8
17/10:30am 12.9 5.7 5.8 62 3.4 WSW 33 46 18 25 1014.0 1014.1 0.0
17/10:00am 12.9 6.4 6.7 66 3.0 W 30 44 16 24 1013.9 1014.0 0.0
17/09:30am 12.7 5.9 7.0 68 2.8 W 32 43 17 23 1013.9 1014.0 0.0
17/09:00am 11.6 5.1 6.7 72 2.3 W 30 39 16 21 1013.9 1014.0 0.8
17/08:30am 11.7 6.5 7.2 74 2.2 W 24 32 13 17 1013.8 1013.9 0.8
17/08:00am 10.9 6.5 6.6 75 2.0 WNW 19 28 10 15 1013.7 1013.8 0.8
17/07:30am 9.4 5.6 5.9 79 1.6 WNW 15 20 8 11 1013.6 1013.7 0.8
17/07:00am 9.8 5.7 6.2 78 1.7 WNW 17 26 9 14 1013.3 1013.4 0.8
17/06:30am 9.8 5.2 6.3 79 1.6 WNW 20 28 11 15 1013.2 1013.3 0.8
17/06:00am 9.8 5.4 6.7 81 1.5 WNW 19 26 10 14 1013.1 1013.2 0.8
17/05:30am 9.8 5.5 7.2 84 1.2 WNW 19 26 10 14 1013.0 1013.1 0.8
17/05:00am 9.1 6.4 7.2 88 0.9 WNW 11 15 6 8 1012.9 1013.0 0.8
17/04:30am 9.1 6.3 6.9 86 1.0 NNW 11 15 6 8 1012.8 1012.9 0.8
17/04:00am 9.1 6.0 7.1 87 0.9 NNW 13 17 7 9 1012.7 1012.8 0.8
17/03:30am 9.4 5.5 7.0 85 1.1 NW 17 20 9 11 1012.7 1012.8 0.6
17/03:00am 9.4 5.1 7.2 86 1.0 NW 19 24 10 13 1012.6 1012.7 0.6
17/02:30am 9.1 4.6 7.1 87 0.9 NW 20 24 11 13 1012.7 1012.8 0.6
17/02:00am 8.0 4.0 6.5 90 0.7 WNW 17 20 9 11 1012.8 1012.9 0.6
17/01:30am 7.9 4.6 6.4 90 0.7 NNW 13 17 7 9 1013.2 1013.3 0.6
17/01:00am 8.0 4.7 6.3 89 0.8 NW 13 15 7 8 1013.2 1013.3 0.6
17/12:30am 8.3 5.4 6.3 87 0.9 WNW 11 13 6 7 1013.2 1013.3 0.6
17/12:00am 9.4 6.3 7.2 86 1.0 WNW 13 15 7 8 1013.3 1013.4 0.6
 
Date/Time
EST
Temp
°C
App
Temp
°C
Dew
Point
Rel
Hum
%
Delta-T
°C
Wind Press
QNH
hPa
Press
MSL
hPa
Rain
since 9 am
mm
Dir
 
Spd
km/h
Gust
km/h
Spd
kts
Gust
kts
16/11:30pm 9.2 6.5 7.2 87 0.9 NW 11 13 6 7 1013.3 1013.4 0.6
16/11:00pm 8.4 5.5 6.4 87 0.9 NW 11 13 6 7 1013.5 1013.6 0.6
16/10:30pm 8.3 5.0 6.4 88 0.9 NW 13 17 7 9 1013.9 1014.0 0.6
16/10:00pm 7.8 4.4 5.9 88 0.9 WNW 13 15 7 8 1013.9 1014.0 0.6
16/09:30pm 7.8 4.3 5.6 86 1.0 W 13 17 7 9 1013.7 1013.8 0.6
16/09:00pm 8.2 4.8 6.0 86 1.0 W 13 17 7 9 1013.7 1013.8 0.6
16/08:30pm 8.1 5.4 5.7 85 1.1 WSW 9 13 5 7 1013.5 1013.6 0.6
16/08:00pm 8.7 5.3 6.0 83 1.2 WSW 13 17 7 9 1013.3 1013.4 0.6
16/07:30pm 10.3 6.5 7.4 82 1.4 WSW 17 22 9 12 1013.2 1013.3 0.6
16/07:00pm 11.4 9.3 9.7 89 0.9 WSW 11 15 6 8 1012.7 1012.8 0.6
16/06:30pm 11.5 9.4 9.8 89 0.9 SSW 11 15 6 8 1012.6 1012.7 0.6
16/06:00pm 12.0 10.1 10.4 90 0.8 S 11 13 6 7 1012.1 1012.2 0.6
16/05:30pm 11.9 9.2 10.3 90 0.8 SSW 15 20 8 11 1012.0 1012.1 0.6
16/05:00pm 12.8 7.5 9.8 82 1.5 WSW 28 35 15 19 1011.5 1011.6 0.6
16/04:35pm 12.8 9.6 11.4 91 0.7 WSW 19 28 10 15 1011.2 1011.3 0.6
16/04:30pm 12.7 9.5 11.3 91 0.7 WSW 19 30 10 16 1011.2 1011.3 0.6
16/04:18pm 12.4 10.3 11.1 92 0.7 SW 13 17 7 9 1011.1 1011.2 0.6
16/04:00pm 12.4 10.3 11.1 92 0.7 WSW 13 19 7 10 1010.9 1011.0 0.6
16/03:48pm 12.2 8.9 10.9 92 0.7 SW 19 26 10 14 1010.9 1011.0 0.6
16/03:45pm 12.2 8.8 11.1 93 0.6 SW 20 26 11 14 1010.8 1010.9 0.6
16/03:31pm 12.0 7.7 10.7 92 0.7 WSW 24 30 13 16 1010.8 1010.9 0.4
16/03:30pm 12.0 7.7 10.7 92 0.7 WSW 24 30 13 16 1010.8 1010.9 0.4
16/03:23pm 12.1 8.2 10.7 91 0.7 WSW 22 32 12 17 1010.7 1010.8 0.4
16/03:00pm 12.3 8.2 10.2 87 1.1 SW 22 35 12 19 1010.5 1010.6 0.4
16/02:45pm 12.4 8.1 10.6 89 0.9 SW 24 33 13 18 1010.4 1010.5 0.4
16/02:30pm 12.1 7.5 11.0 93 0.6 SW 26 33 14 18 1010.2 1010.3 0.4
16/02:00pm 12.4 7.4 11.1 92 0.7 SSW 28 37 15 20 1009.9 1009.9 0.2
16/01:30pm 13.0 8.4 11.2 89 1.0 SW 26 39 14 21 1009.7 1009.7 0.2
16/01:24pm 13.0 7.7 11.2 89 1.0 SW 30 43 16 23 1009.7 1009.7 0.2
16/01:09pm 13.0 9.4 11.7 92 0.7 SSW 22 33 12 18 1009.6 1009.6 0.2
16/01:07pm 13.2 10.1 12.1 93 0.6 SSW 20 33 11 18 1009.6 1009.6 0.2
16/01:00pm 13.1 10.2 12.2 94 0.5 SSW 19 24 10 13 1009.6 1009.6 0.2
16/12:51pm 12.8 9.2 11.7 93 0.6 SSW 22 30 12 16 1009.7 1009.7 0.2
16/12:44pm 12.9 8.8 11.5 91 0.7 SSW 24 30 13 16 1009.7 1009.7 0.2
16/12:36pm 13.3 10.1 11.9 91 0.8 SW 20 28 11 15 1009.7 1009.7 0.0
16/12:30pm 13.3 10.1 12.0 92 0.7 SW 20 26 11 14 1009.7 1009.7 0.0
16/12:14pm 13.0 8.9 11.6 91 0.7 WSW 24 32 13 17 1009.9 1009.9 0.0
16/12:10pm 13.1 9.5 11.7 91 0.7 WSW 22 32 12 17 1010.0 1010.1 0.0
16/12:00pm 13.1 9.8 11.5 90 0.9 WSW 20 26 11 14 1010.0 1010.1 0.0
16/11:30am 13.8 10.4 11.1 84 1.4 WSW 20 26 11 14 1010.0 1010.1 0.0
16/11:00am 13.7 10.1 10.7 82 1.6 WSW 20 30 11 16 1010.1 1010.2 0.0
16/10:30am 13.7 10.2 10.9 83 1.5 SW 20 28 11 15 1010.1 1010.2 0.0
16/10:00am 13.4 9.9 10.9 85 1.3 W 20 28 11 15 1010.0 1010.1 0.0
16/09:30am 13.2 9.0 11.1 87 1.1 WSW 24 33 13 18 1009.8 1009.8 0.0
16/09:00am 12.7 9.4 10.8 88 1.0 WSW 19 28 10 15 1009.9 1009.9 0.0
16/08:30am 12.5 9.3 11.1 91 0.7 WSW 19 22 10 12 1009.8 1009.8 0.0
16/08:26am 12.5 9.6 11.1 91 0.7 W 17 22 9 12 1009.8 1009.8 0.0
16/08:03am 12.3 10.2 11.2 93 0.6 WSW 13 19 7 10 1009.4 1009.4 0.0
16/08:00am 12.3 10.2 11.2 93 0.6 WSW 13 17 7 9 1009.3 1009.3 0.0
16/07:30am 12.1 9.6 11.2 94 0.5 WSW 15 20 8 11 1009.3 1009.3 0.0
16/07:00am 11.8 8.9 11.0 95 0.4 WSW 17 22 9 12 1008.8 1008.8 0.0
16/06:30am 11.7 7.8 10.9 95 0.4 W 22 30 12 16 1008.4 1008.4 0.0
16/06:00am 11.6 8.3 10.8 95 0.4 W 19 24 10 13 1008.0 1008.0 0.0
16/05:30am 11.6 8.1 11.0 96 0.3 W 20 26 11 14 1007.8 1007.8 0.0
16/05:00am 11.4 8.4 10.8 96 0.3 W 17 22 9 12 1007.6 1007.6 0.0
16/04:30am 11.3 8.3 10.7 96 0.3 W 17 20 9 11 1007.3 1007.3 0.0
16/04:00am 11.2 8.6 10.6 96 0.3 WNW 15 17 8 9 1007.2 1007.2 0.0
16/03:30am 11.0 8.7 10.4 96 0.3 WNW 13 17 7 9 1007.1 1007.1 0.0
16/03:00am 11.1 8.1 10.5 96 0.3 WNW 17 20 9 11 1007.2 1007.2 0.0
16/02:30am 11.1 8.1 10.6 97 0.3 W 17 24 9 13 1007.4 1007.4 0.0
16/02:00am 11.0 7.6 10.5 97 0.3 WNW 19 24 10 13 1007.7 1007.7 0.0
16/01:55am 11.0 7.6 10.5 97 0.3 WNW 19 26 10 14 1007.7 1007.7 0.0
16/01:30am 11.0 8.7 10.5 97 0.3 WNW 13 20 7 11 1007.8 1007.8 0.0
16/01:00am 10.4 7.5 9.8 96 0.3 NW 15 19 8 10 1008.3 1008.3 0.0
16/12:30am 10.5 7.7 9.9 96 0.3 WNW 15 19 8 10 1008.4 1008.4 0.0
16/12:00am 10.5 8.0 9.7 95 0.4 NW 13 17 7 9 1008.2 1008.2 0.0
 
Date/Time
EST
Temp
°C
App
Temp
°C
Dew
Point
Rel
Hum
%
Delta-T
°C
Wind Press
QNH
hPa
Press
MSL
hPa
Rain
since 9 am
mm
Dir
 
Spd
km/h
Gust
km/h
Spd
kts
Gust
kts
15/11:30pm 10.7 8.2 9.6 93 0.6 WNW 13 15 7 8 1008.6 1008.6 0.0
15/11:00pm 11.2 8.4 9.9 92 0.7 WNW 15 19 8 10 1008.7 1008.7 0.0
15/10:30pm 11.7 9.3 10.1 90 0.8 W 13 17 7 9 1008.8 1008.8 0.0
15/10:00pm 11.9 10.1 9.5 85 1.2 SSE 9 11 5 6 1009.0 1009.0 0.0
15/09:30pm 13.2 12.7 10.6 84 1.4 SSE 4 6 2 3 1008.9 1008.9 0.0
15/09:00pm 13.5 12.6 10.5 82 1.6 SSE 6 7 3 4 1009.0 1009.0 0.0
15/08:30pm 14.1 12.6 10.7 80 1.8 SSE 9 11 5 6 1009.2 1009.2 0.0
15/08:00pm 14.1 12.2 10.5 79 1.9 E 11 13 6 7 1009.2 1009.2 0.0
15/07:30pm 14.7 13.2 10.7 77 2.1 SSE 9 11 5 6 1009.4 1009.4 0.0
15/07:00pm 14.9 13.1 10.9 77 2.1 SE 11 13 6 7 1009.2 1009.2 0.0
15/06:30pm 15.2 13.8 11.0 76 2.2 SE 9 11 5 6 1009.3 1009.3 0.0
15/06:00pm 15.7 13.5 10.9 73 2.6 ESE 13 15 7 8 1009.1 1009.1 0.0
15/05:30pm 16.5 14.0 11.0 70 3.0 ESE 15 19 8 10 1009.2 1009.2 0.0
15/05:00pm 16.9 14.1 11.2 69 3.1 ESE 17 20 9 11 1009.1 1009.1 0.0
15/04:30pm 17.3 14.4 11.1 67 3.4 E 17 22 9 12 1009.4 1009.4 0.0
15/04:00pm 17.9 14.8 10.3 61 4.1 E 17 24 9 13 1009.6 1009.6 0.0
15/03:30pm 17.5 13.9 9.7 60 4.1 E 19 28 10 15 1009.5 1009.5 0.0
15/03:00pm 17.4 14.5 9.8 61 4.0 E 15 20 8 11 1010.5 1010.6 0.0
15/02:30pm 17.2 14.4 9.9 62 3.9 E 15 19 8 10 1010.7 1010.8 0.0
15/02:00pm 16.8 14.9 10.6 67 3.3 SE 11 15 6 8 1011.2 1011.3 0.0
15/01:30pm 16.2 14.4 10.7 70 2.9 ESE 11 15 6 8 1011.5 1011.6 0.0
15/01:00pm 16.4 13.2 10.0 66 3.4 E 17 22 9 12 1011.6 1011.7 0.0
15/12:30pm 16.7 14.5 10.8 68 3.2 E 13 17 7 9 1012.6 1012.7 0.0
15/12:00pm 15.0 13.1 10.4 74 2.4 E 11 15 6 8 1013.2 1013.3 0.0
15/11:30am 14.4 12.8 10.2 76 2.2 ESE 9 13 5 7 1013.8 1013.9 0.0
15/11:00am 13.9 12.4 10.7 81 1.7 E 9 15 5 8 1014.4 1014.5 0.0
15/10:30am 13.0 11.9 10.5 85 1.3 ESE 7 11 4 6 1015.0 1015.1 0.0
15/10:00am 12.4 11.5 10.5 88 1.0 ENE 6 11 3 6 1015.6 1015.6 0.0
15/09:30am 12.1 11.2 11.2 94 0.5 NE 7 9 4 5 1016.1 1016.1 0.0
15/09:29am 11.9 10.9 11.0 94 0.5 NE 7 9 4 5 1016.1 1016.1 0.0
15/09:18am 11.7 10.7 10.9 95 0.4 NE 7 9 4 5 1016.2 1016.2 0.0
15/09:00am 11.4 10.0 10.9 97 0.3 NE 9 11 5 6 1016.3 1016.3 0.8
15/08:30am 10.6 9.4 10.3 98 0.2 NE 7 9 4 5 1016.6 1016.6 0.8
15/08:00am 10.1 8.8 9.8 98 0.2 NE 7 9 4 5 1016.7 1016.7 0.8
15/07:36am 9.9 8.5 9.6 98 0.2 ENE 7 9 4 5 1016.7 1016.7 0.8
15/07:30am 9.7 8.3 9.4 98 0.1 ENE 7 9 4 5 1016.7 1016.7 0.8
15/07:29am 9.7 8.3 9.4 98 0.1 ENE 7 7 4 4 1016.7 1016.7 0.8
15/07:00am 8.7 8.3 8.4 98 0.1 CALM 0 0 0 0 1016.7 1016.7 0.8
15/06:55am 8.5 8.1 8.2 98 0.1 CALM 0 6 0 3 1016.6 1016.6 0.8
15/06:43am 8.4 7.2 8.0 97 0.2 NNW 4 6 2 3 1016.4 1016.4 0.8
15/06:30am 8.7 7.6 8.4 98 0.1 NNW 4 7 2 4 1016.5 1016.5 0.8
15/06:00am 8.8 7.7 8.4 97 0.2 NNW 4 7 2 4 1016.7 1016.7 0.8
15/05:30am 8.6 7.4 8.2 97 0.2 NNW 4 7 2 4 1016.4 1016.4 0.4
15/05:00am 8.5 6.4 8.2 98 0.1 NW 9 13 5 7 1016.7 1016.7 0.0
15/04:30am 8.2 6.0 7.8 97 0.2 NNW 9 11 5 6 1016.5 1016.5 0.0
15/04:00am 8.2 5.2 7.9 98 0.1 NW 13 15 7 8 1016.7 1016.7 0.0
15/03:30am 7.9 6.2 7.5 97 0.2 NNW 6 7 3 4 1016.2 1016.2 0.0
15/03:00am 7.9 7.3 7.3 96 0.3 CALM 0 0 0 0 1016.5 1016.5 0.0
15/02:30am 8.6 6.8 8.0 96 0.3 NNW 7 7 4 4 1016.9 1016.9 0.0
15/02:00am 8.6 6.4 7.8 95 0.4 NW 9 11 5 6 1017.6 1017.6 0.0
15/01:30am 9.3 6.9 8.5 95 0.4 WNW 11 13 6 7 1018.1 1018.1 0.0
15/01:00am 8.3 6.0 7.4 94 0.4 W 9 11 5 6 1018.6 1018.6 0.0
15/12:30am 8.6 6.3 7.5 93 0.5 W 9 11 5 6 1018.6 1018.6 0.0
15/12:00am 8.4 6.0 7.2 92 0.6 W 9 9 5 5 1018.8 1018.8 0.0
 
Date/Time
EST
Temp
°C
App
Temp
°C
Dew
Point
Rel
Hum
%
Delta-T
°C
Wind Press
QNH
hPa
Press
MSL
hPa
Rain
since 9 am
mm
Dir
 
Spd
km/h
Gust
km/h
Spd
kts
Gust
kts
14/11:30pm 9.5 7.4 8.3 92 0.6 WSW 9 11 5 6 1019.1 1019.1 0.0
14/11:00pm 9.8 7.7 8.4 91 0.7 SSW 9 11 5 6 1019.3 1019.3 0.0
14/10:30pm 10.0 7.9 8.1 88 0.9 SSW 9 11 5 6 1019.5 1019.5 0.0
14/10:00pm 10.3 8.1 7.7 84 1.3 SSW 9 11 5 6 1019.6 1019.6 0.0
14/09:30pm 11.2 9.0 7.7 79 1.7 S 9 13 5 7 1019.4 1019.4 0.0
14/09:00pm 11.8 9.1 7.5 75 2.1 S 11 15 6 8 1019.4 1019.4 0.0
14/08:30pm 12.3 9.8 8.0 75 2.1 SSE 11 17 6 9 1019.4 1019.4 0.0
14/08:00pm 13.1 10.3 8.6 74 2.3 SSE 13 17 7 9 1019.2 1019.2 0.0

Other Formats:

Comma delimited format used in spreadsheet applications
http://www.bom.gov.au/fwo/IDV60801/IDV60801.95866.axf

JavaScript Object Notation format (JSON) in row-major order
http://www.bom.gov.au/fwo/IDV60801/IDV60801.95866.json